createdAt,value
2022-09-03T00:00:06.350Z,23.10
2022-09-03T00:02:45.577Z,23.10
2022-09-03T00:05:27.018Z,23.00
2022-09-03T00:08:06.277Z,23.10
2022-09-03T00:10:52.152Z,23.10
2022-09-03T00:13:31.018Z,23.10
2022-09-03T00:15:59.909Z,23.10
2022-09-03T00:18:35.010Z,23.10
2022-09-03T00:21:08.682Z,23.10
2022-09-03T00:23:40.493Z,23.10
2022-09-03T00:26:13.636Z,23.10
2022-09-03T00:28:54.714Z,23.10
2022-09-03T00:31:38.957Z,23.10
2022-09-03T00:34:50.953Z,23.10
2022-09-03T00:37:18.349Z,23.10
2022-09-03T00:39:46.248Z,23.00
2022-09-03T00:42:52.005Z,23.00
2022-09-03T00:45:59.038Z,23.00
2022-09-03T00:48:30.924Z,23.10
2022-09-03T00:51:13.780Z,23.00
2022-09-03T00:53:51.326Z,23.00
2022-09-03T00:56:37.538Z,23.00
2022-09-03T00:59:29.404Z,23.00
2022-09-03T01:02:11.668Z,22.90
2022-09-03T01:04:56.747Z,22.90
2022-09-03T01:07:42.975Z,22.90
2022-09-03T01:10:10.361Z,23.00
2022-09-03T01:12:59.855Z,23.00
2022-09-03T01:15:27.322Z,23.00
2022-09-03T01:18:13.599Z,23.00
2022-09-03T01:20:43.852Z,23.10
2022-09-03T01:23:14.271Z,23.00
2022-09-03T01:25:47.627Z,23.10
2022-09-03T01:28:22.051Z,23.00
2022-09-03T01:31:05.564Z,23.10
2022-09-03T01:33:44.298Z,23.00
2022-09-03T01:36:35.559Z,23.10
2022-09-03T01:39:06.469Z,23.10
2022-09-03T01:41:55.439Z,23.10
2022-09-03T01:44:48.277Z,23.10
2022-09-03T01:47:50.409Z,23.20
2022-09-03T01:50:57.789Z,23.10
2022-09-03T01:53:55.990Z,23.10
2022-09-03T01:57:12.807Z,23.00
2022-09-03T02:00:09.137Z,23.10
2022-09-03T02:02:47.826Z,23.00
2022-09-03T02:05:18.713Z,23.00
2022-09-03T02:07:58.061Z,22.90
2022-09-03T02:10:39.351Z,22.80
2022-09-03T02:13:20.980Z,22.80
2022-09-03T02:15:50.654Z,22.70
2022-09-03T02:18:22.362Z,22.60
2022-09-03T02:20:52.985Z,22.60
2022-09-03T02:23:24.671Z,22.50
2022-09-03T02:26:01.316Z,22.50
2022-09-03T02:28:30.917Z,22.50
2022-09-03T02:30:58.767Z,22.30
2022-09-03T02:33:26.372Z,22.40
2022-09-03T02:35:54.659Z,22.40
2022-09-03T02:38:28.371Z,22.40
2022-09-03T02:40:55.940Z,22.40
2022-09-03T02:43:48.081Z,22.30
2022-09-03T02:46:22.361Z,22.30
2022-09-03T02:48:49.846Z,22.30
2022-09-03T02:51:17.325Z,22.30
2022-09-03T02:53:45.008Z,22.30
2022-09-03T02:56:12.790Z,22.30
2022-09-03T02:58:40.208Z,22.40
2022-09-03T03:01:08.042Z,22.30
2022-09-03T03:03:35.531Z,22.30
2022-09-03T03:06:05.693Z,22.30
2022-09-03T03:08:34.767Z,22.30
2022-09-03T03:11:02.240Z,22.20
2022-09-03T03:13:30.797Z,22.30
2022-09-03T03:16:00.525Z,22.30
2022-09-03T03:18:28.309Z,22.20
2022-09-03T03:20:56.033Z,22.30
2022-09-03T03:23:23.554Z,22.30
2022-09-03T03:25:50.990Z,22.30
2022-09-03T03:28:20.303Z,22.40
2022-09-03T03:30:49.034Z,22.40
2022-09-03T03:33:16.533Z,22.40
2022-09-03T03:35:43.924Z,22.40
2022-09-03T03:38:11.480Z,22.40
2022-09-03T03:40:39.398Z,22.30
2022-09-03T03:43:06.888Z,22.30
2022-09-03T03:45:34.281Z,22.40
2022-09-03T03:48:01.743Z,22.40
2022-09-03T03:50:29.128Z,22.40
2022-09-03T03:53:00.717Z,22.50
2022-09-03T03:55:29.167Z,22.50
2022-09-03T03:58:02.973Z,22.40
2022-09-03T04:00:30.352Z,22.40
2022-09-03T04:02:58.988Z,22.40
2022-09-03T04:05:26.375Z,22.30
2022-09-03T04:07:54.189Z,22.40
2022-09-03T04:10:21.736Z,22.40
2022-09-03T04:12:49.101Z,22.40
2022-09-03T04:15:17.160Z,22.30
2022-09-03T04:17:44.560Z,22.30
2022-09-03T04:20:11.936Z,22.30
2022-09-03T04:22:39.320Z,22.30
2022-09-03T04:25:07.000Z,22.20
2022-09-03T04:27:34.425Z,22.20
2022-09-03T04:30:01.918Z,22.20
2022-09-03T04:32:49.013Z,22.20
2022-09-03T04:35:23.917Z,22.20
2022-09-03T04:37:51.878Z,22.20
2022-09-03T04:40:19.248Z,22.10
2022-09-03T04:42:46.612Z,22.00
2022-09-03T04:45:18.591Z,22.00
2022-09-03T04:48:04.956Z,22.00
2022-09-03T04:50:35.568Z,22.00
2022-09-03T04:53:08.016Z,22.00
2022-09-03T04:55:37.270Z,22.00
2022-09-03T04:58:07.749Z,22.00
2022-09-03T05:00:36.909Z,22.10
2022-09-03T05:03:05.200Z,22.00
2022-09-03T05:05:36.156Z,22.00
2022-09-03T05:08:04.235Z,21.90
2022-09-03T05:10:32.051Z,21.80
2022-09-03T05:13:04.943Z,21.80
2022-09-03T05:15:33.259Z,21.80
2022-09-03T05:18:04.784Z,21.90
2022-09-03T05:20:32.836Z,22.00
2022-09-03T05:23:04.091Z,22.10
2022-09-03T05:25:34.486Z,22.10
2022-09-03T05:28:02.015Z,22.20
2022-09-03T05:30:29.988Z,22.20
2022-09-03T05:32:57.752Z,22.30
2022-09-03T05:35:26.176Z,22.30
2022-09-03T05:37:57.600Z,22.30
2022-09-03T05:40:25.015Z,22.40
2022-09-03T05:42:57.808Z,22.40
2022-09-03T05:45:25.288Z,22.40
2022-09-03T05:47:52.678Z,22.40
2022-09-03T05:50:20.053Z,22.50
2022-09-03T05:52:47.921Z,22.60
2022-09-03T05:55:15.380Z,22.70
2022-09-03T05:57:43.491Z,22.70
2022-09-03T06:00:11.276Z,22.80
2022-09-03T06:02:40.009Z,22.90
2022-09-03T06:05:08.079Z,22.90
2022-09-03T06:07:35.401Z,23.00
2022-09-03T06:10:04.814Z,23.00
2022-09-03T06:12:32.186Z,23.00
2022-09-03T06:14:59.525Z,23.00
2022-09-03T06:17:27.069Z,23.10
2022-09-03T06:19:54.325Z,23.10
2022-09-03T06:22:24.957Z,23.10
2022-09-03T06:24:54.545Z,23.10
2022-09-03T06:27:21.924Z,23.10
2022-09-03T06:29:50.001Z,23.20
2022-09-03T06:32:17.318Z,23.20
2022-09-03T06:34:44.873Z,23.20
2022-09-03T06:37:12.329Z,23.30
2022-09-03T06:39:39.654Z,23.40
2022-09-03T06:42:07.400Z,23.30
2022-09-03T06:44:36.886Z,23.40
2022-09-03T06:47:04.353Z,23.40
2022-09-03T06:49:31.649Z,23.40
2022-09-03T06:51:59.487Z,23.50
2022-09-03T06:54:26.887Z,23.60
2022-09-03T06:56:54.193Z,23.60
2022-09-03T06:59:21.613Z,23.70
2022-09-03T07:01:49.237Z,23.70
2022-09-03T07:04:19.259Z,23.80
2022-09-03T07:06:48.045Z,23.90
2022-09-03T07:09:18.173Z,23.90
2022-09-03T07:11:49.403Z,24.00
2022-09-03T07:14:18.856Z,24.00
2022-09-03T07:16:47.344Z,24.10
2022-09-03T07:19:15.292Z,24.30
2022-09-03T07:21:48.800Z,24.30
2022-09-03T07:24:18.199Z,24.40
2022-09-03T07:26:47.118Z,24.40
2022-09-03T07:29:16.492Z,24.60
2022-09-03T07:31:44.391Z,24.60
2022-09-03T07:34:13.592Z,24.70
2022-09-03T07:36:48.704Z,24.80
2022-09-03T07:39:18.215Z,24.90
2022-09-03T07:41:46.751Z,25.00
2022-09-03T07:44:16.327Z,25.00
2022-09-03T07:46:45.561Z,25.00
2022-09-03T07:49:13.211Z,25.10
2022-09-03T07:51:40.872Z,25.10
2022-09-03T07:54:10.844Z,25.10
2022-09-03T07:56:40.186Z,25.20
2022-09-03T07:59:08.353Z,25.30
2022-09-03T08:01:39.250Z,25.50
2022-09-03T08:04:09.873Z,25.60
2022-09-03T08:06:38.635Z,25.70
2022-09-03T08:09:09.212Z,25.80
2022-09-03T08:11:39.238Z,25.90
2022-09-03T08:14:09.366Z,26.00
2022-09-03T08:16:39.607Z,26.10
2022-09-03T08:19:07.624Z,26.20
2022-09-03T08:21:36.385Z,26.20
2022-09-03T08:24:04.309Z,26.20
2022-09-03T08:26:34.678Z,26.20
2022-09-03T08:29:02.941Z,26.20
2022-09-03T08:31:31.005Z,26.30
2022-09-03T08:34:06.638Z,26.40
2022-09-03T08:36:37.029Z,26.50
2022-09-03T08:39:11.084Z,26.70
2022-09-03T08:42:01.046Z,26.80
2022-09-03T08:44:51.726Z,26.90
2022-09-03T08:47:25.692Z,27.00
2022-09-03T08:50:21.880Z,27.10
2022-09-03T08:53:02.888Z,27.20
2022-09-03T08:55:50.980Z,27.30
2022-09-03T08:58:25.475Z,27.50
2022-09-03T09:01:07.923Z,27.60
2022-09-03T09:03:53.373Z,27.70
2022-09-03T09:06:24.101Z,27.80
2022-09-03T09:09:03.329Z,27.90
2022-09-03T09:11:33.396Z,28.00
2022-09-03T09:14:19.157Z,28.10
2022-09-03T09:17:32.755Z,28.20
2022-09-03T09:20:30.916Z,28.30
2022-09-03T09:23:09.319Z,28.10
2022-09-03T09:25:48.425Z,28.00
2022-09-03T09:28:30.675Z,27.90
2022-09-03T09:31:03.184Z,27.90
2022-09-03T09:33:32.494Z,27.80
2022-09-03T09:36:06.476Z,27.70
2022-09-03T09:38:38.141Z,27.80
2022-09-03T09:41:10.764Z,27.90
2022-09-03T09:43:39.201Z,27.90
2022-09-03T09:46:20.486Z,27.90
2022-09-03T09:48:51.859Z,27.90
2022-09-03T09:51:19.159Z,28.00
2022-09-03T09:53:47.015Z,28.20
2022-09-03T09:56:25.872Z,28.20
2022-09-03T09:59:10.896Z,28.10
2022-09-03T10:01:40.899Z,28.10
2022-09-03T10:04:11.501Z,28.10
2022-09-03T10:06:55.434Z,28.20
2022-09-03T10:09:41.053Z,28.30
2022-09-03T10:12:19.656Z,28.50
2022-09-03T10:15:08.226Z,28.80
2022-09-03T10:17:55.712Z,28.90
2022-09-03T10:20:28.133Z,29.10
2022-09-03T10:23:03.504Z,29.20
2022-09-03T10:25:40.807Z,29.30
2022-09-03T10:28:13.542Z,29.40
2022-09-03T10:31:07.151Z,29.40
2022-09-03T10:33:39.442Z,29.50
2022-09-03T10:36:26.878Z,29.60
2022-09-03T10:39:05.953Z,29.70
2022-09-03T10:42:06.761Z,29.90
2022-09-03T10:44:45.080Z,30.20
2022-09-03T10:47:29.498Z,30.50
2022-09-03T10:50:23.278Z,30.60
2022-09-03T10:53:22.964Z,30.70
2022-09-03T10:56:12.243Z,30.60
2022-09-03T10:58:45.861Z,30.40
2022-09-03T11:01:22.369Z,30.30
2022-09-03T11:04:19.966Z,30.00
2022-09-03T11:06:55.389Z,29.70
2022-09-03T11:09:31.673Z,29.70
2022-09-03T11:12:12.343Z,29.90
2022-09-03T11:14:50.752Z,30.20
2022-09-03T11:17:29.757Z,30.60
2022-09-03T11:20:14.282Z,30.80
2022-09-03T11:22:44.290Z,31.10
2022-09-03T11:25:15.393Z,31.30
2022-09-03T11:27:42.777Z,31.40
2022-09-03T11:30:14.204Z,31.70
2022-09-03T11:32:41.602Z,31.90
2022-09-03T11:35:37.836Z,32.00
2022-09-03T11:38:06.850Z,31.80
2022-09-03T11:40:57.468Z,31.50
2022-09-03T11:43:24.887Z,31.20
2022-09-03T11:46:13.920Z,31.00
2022-09-03T11:48:48.767Z,31.10
2022-09-03T11:51:24.972Z,31.30
2022-09-03T11:53:59.521Z,31.50
2022-09-03T11:56:27.713Z,31.70
2022-09-03T11:59:14.736Z,31.70
2022-09-03T12:01:48.526Z,31.70
2022-09-03T12:04:18.257Z,31.90
2022-09-03T12:06:45.601Z,31.80
2022-09-03T12:09:13.866Z,31.90
2022-09-03T12:12:08.828Z,31.80
2022-09-03T12:15:14.337Z,31.80
2022-09-03T12:18:12.087Z,31.80
2022-09-03T12:20:41.174Z,31.70
2022-09-03T12:23:11.869Z,31.70
2022-09-03T12:25:49.229Z,31.70
2022-09-03T12:28:25.423Z,31.80
2022-09-03T12:30:53.652Z,31.80
2022-09-03T12:33:23.031Z,31.90
2022-09-03T12:36:01.370Z,31.70
2022-09-03T12:38:40.625Z,31.60
2022-09-03T12:41:34.762Z,31.40
2022-09-03T12:44:04.429Z,31.10
2022-09-03T12:46:34.108Z,30.90
2022-09-03T12:52:05.872Z,30.70
2022-09-03T12:54:37.103Z,30.70
2022-09-03T12:57:05.147Z,30.80
2022-09-03T12:59:36.879Z,30.90
2022-09-03T13:02:26.293Z,30.90
2022-09-03T13:04:54.396Z,30.90
2022-09-03T13:07:33.531Z,30.90
2022-09-03T13:10:06.928Z,30.90
2022-09-03T13:12:58.766Z,30.90
2022-09-03T13:15:27.155Z,30.80
2022-09-03T13:18:09.735Z,30.70
2022-09-03T13:20:54.259Z,30.50
2022-09-03T13:23:55.445Z,30.40
2022-09-03T13:26:36.384Z,30.30
2022-09-03T13:29:18.625Z,30.40
2022-09-03T13:32:07.816Z,30.50
2022-09-03T13:34:40.595Z,30.40
2022-09-03T13:37:37.551Z,30.30
2022-09-03T13:40:32.117Z,30.20
2022-09-03T13:43:22.211Z,30.30
2022-09-03T13:45:53.665Z,30.30
2022-09-03T13:49:01.415Z,30.30
2022-09-03T13:52:07.610Z,30.30
2022-09-03T13:54:48.979Z,30.20
2022-09-03T13:57:46.627Z,30.20
2022-09-03T14:00:25.110Z,30.00
2022-09-03T14:03:06.435Z,29.80
2022-09-03T14:05:55.171Z,29.80
2022-09-03T14:08:54.320Z,29.80
2022-09-03T14:11:34.809Z,29.70
2022-09-03T14:14:37.206Z,29.60
2022-09-03T14:17:04.536Z,29.60
2022-09-03T14:19:37.954Z,29.40
2022-09-03T14:22:46.224Z,29.20
2022-09-03T14:25:22.229Z,29.10
2022-09-03T14:27:50.270Z,29.00
2022-09-03T14:30:46.512Z,28.80
2022-09-03T14:33:28.672Z,28.70
2022-09-03T14:36:08.695Z,28.60
2022-09-03T14:39:24.468Z,28.60
2022-09-03T14:42:38.852Z,28.50
2022-09-03T14:45:47.495Z,28.60
2022-09-03T14:48:44.341Z,28.50
2022-09-03T14:51:39.748Z,28.50
2022-09-03T14:54:42.061Z,28.60
2022-09-03T14:58:00.084Z,28.60
2022-09-03T15:00:57.968Z,28.60
2022-09-03T15:03:34.084Z,28.50
2022-09-03T15:06:30.748Z,28.50
2022-09-03T15:09:30.896Z,28.50
2022-09-03T15:12:08.690Z,28.50
2022-09-03T15:14:52.126Z,28.60
2022-09-03T15:17:22.392Z,28.70
2022-09-03T15:20:07.155Z,28.70
2022-09-03T15:22:34.486Z,28.70
2022-09-03T15:25:27.855Z,28.60
2022-09-03T15:28:46.217Z,28.60
2022-09-03T15:31:21.829Z,28.60
2022-09-03T15:34:02.771Z,28.40
2022-09-03T15:36:41.393Z,28.40
2022-09-03T15:39:22.327Z,28.40
2022-09-03T15:42:10.342Z,28.40
2022-09-03T15:44:55.147Z,28.30
2022-09-03T15:47:51.930Z,28.30
2022-09-03T15:50:40.190Z,28.20
2022-09-03T15:53:34.129Z,28.10
2022-09-03T15:56:32.468Z,28.10
2022-09-03T15:59:05.367Z,28.00
2022-09-03T16:02:10.978Z,28.00
2022-09-03T16:04:46.952Z,28.00
2022-09-03T16:07:39.662Z,28.00
2022-09-03T16:10:24.568Z,28.00
2022-09-03T16:13:20.763Z,28.00
2022-09-03T16:16:07.945Z,28.00
2022-09-03T16:18:55.292Z,28.00
2022-09-03T16:21:43.231Z,28.00
2022-09-03T16:24:24.025Z,28.00
2022-09-03T16:27:00.650Z,28.00
2022-09-03T16:29:33.645Z,27.90
2022-09-03T16:32:16.511Z,27.90
2022-09-03T16:34:55.840Z,27.90
2022-09-03T16:37:30.396Z,27.90
2022-09-03T16:40:11.393Z,27.80
2022-09-03T16:42:54.566Z,27.90
2022-09-03T16:45:48.872Z,27.90
2022-09-03T16:48:34.856Z,27.80
2022-09-03T16:51:23.800Z,27.80
2022-09-03T16:54:14.995Z,27.70
2022-09-03T16:57:35.740Z,27.80
2022-09-03T17:00:14.700Z,27.70
2022-09-03T17:03:30.512Z,27.70
2022-09-03T17:06:18.740Z,27.60
2022-09-03T17:09:12.883Z,27.60
2022-09-03T17:11:57.382Z,27.50
2022-09-03T17:14:50.860Z,27.50
2022-09-03T17:17:42.932Z,27.40
2022-09-03T17:20:15.767Z,27.40
2022-09-03T17:22:43.097Z,27.30
2022-09-03T17:25:24.892Z,27.30
2022-09-03T17:28:03.214Z,27.30
2022-09-03T17:30:53.663Z,27.30
2022-09-03T17:33:46.131Z,27.20
2022-09-03T17:36:16.124Z,27.20
2022-09-03T17:38:50.121Z,27.10
2022-09-03T17:41:40.688Z,27.10
2022-09-03T17:44:32.314Z,27.10
2022-09-03T17:47:08.987Z,27.10
2022-09-03T17:49:48.463Z,27.10
2022-09-03T17:52:40.952Z,27.10
2022-09-03T17:55:31.764Z,27.10
2022-09-03T17:58:21.191Z,27.10
2022-09-03T18:01:11.227Z,27.00
2022-09-03T18:03:52.212Z,27.00
2022-09-03T18:06:37.625Z,27.00
2022-09-03T18:09:17.481Z,26.90
2022-09-03T18:12:07.755Z,26.90
2022-09-03T18:15:11.652Z,26.90
2022-09-03T18:18:05.348Z,26.90
2022-09-03T18:21:27.579Z,26.90
2022-09-03T18:24:34.099Z,26.80
2022-09-03T18:27:29.770Z,26.70
2022-09-03T18:30:20.105Z,26.70
2022-09-03T18:33:07.098Z,26.60
2022-09-03T18:35:53.877Z,26.60
2022-09-03T18:38:45.901Z,26.50
2022-09-03T18:41:43.111Z,26.40
2022-09-03T18:44:48.565Z,26.50
2022-09-03T18:51:11.872Z,26.40
2022-09-03T18:54:26.312Z,26.30
2022-09-03T18:57:12.699Z,26.30
2022-09-03T19:00:18.644Z,26.30
2022-09-03T19:03:19.848Z,26.30
2022-09-03T19:06:41.685Z,26.30
2022-09-03T19:09:36.680Z,26.30
2022-09-03T19:12:31.609Z,26.30
2022-09-03T19:15:27.088Z,26.30
2022-09-03T19:18:20.931Z,26.20
2022-09-03T19:21:26.016Z,26.20
2022-09-03T19:24:20.143Z,26.10
2022-09-03T19:27:55.676Z,26.00
2022-09-03T19:31:08.839Z,26.00
2022-09-03T19:34:27.003Z,25.80
2022-09-03T19:37:32.134Z,25.90
2022-09-03T19:40:43.222Z,25.90
2022-09-03T19:43:43.857Z,25.90
2022-09-03T19:46:51.145Z,25.90
2022-09-03T19:50:21.518Z,25.80
2022-09-03T19:53:10.300Z,25.90
2022-09-03T19:56:11.221Z,25.80
2022-09-03T19:59:01.961Z,25.90
2022-09-03T20:01:56.148Z,25.90
2022-09-03T20:04:50.910Z,25.80
2022-09-03T20:07:37.790Z,25.70
2022-09-03T20:10:22.605Z,25.70
2022-09-03T20:13:15.226Z,25.70
2022-09-03T20:15:57.637Z,25.60
2022-09-03T20:18:42.485Z,25.50
2022-09-03T20:21:23.553Z,25.30
2022-09-03T20:23:57.042Z,25.30
2022-09-03T20:26:32.531Z,25.30
2022-09-03T20:29:23.527Z,25.30
2022-09-03T20:32:08.720Z,25.30
2022-09-03T20:34:47.973Z,25.30
2022-09-03T20:37:41.456Z,25.20
2022-09-03T20:40:29.116Z,25.20
2022-09-03T20:43:07.553Z,25.20
2022-09-03T20:45:47.599Z,25.10
2022-09-03T20:48:26.994Z,25.10
2022-09-03T20:51:11.976Z,25.00
2022-09-03T20:53:54.875Z,25.00
2022-09-03T20:56:22.312Z,25.00
2022-09-03T20:58:58.716Z,25.00
2022-09-03T21:01:33.883Z,25.10
2022-09-03T21:04:10.043Z,25.00
2022-09-03T21:07:11.799Z,25.00
2022-09-03T21:09:53.178Z,25.00
2022-09-03T21:13:02.214Z,25.00
2022-09-03T21:16:06.265Z,25.00
2022-09-03T21:18:51.599Z,24.90
2022-09-03T21:21:36.667Z,25.00
2022-09-03T21:24:53.236Z,25.00
2022-09-03T21:27:29.931Z,24.90
2022-09-03T21:30:05.396Z,25.00
2022-09-03T21:33:02.979Z,25.10
2022-09-03T21:35:32.821Z,25.00
2022-09-03T21:38:17.109Z,25.10
2022-09-03T21:41:07.420Z,25.20
2022-09-03T21:43:52.557Z,25.20
2022-09-03T21:46:25.642Z,25.20
2022-09-03T21:48:56.397Z,25.20
2022-09-03T21:51:47.983Z,25.20
2022-09-03T21:54:33.725Z,25.20
2022-09-03T21:57:24.585Z,25.20
2022-09-03T21:59:57.804Z,25.20
2022-09-03T22:02:26.508Z,25.20
2022-09-03T22:04:55.873Z,25.20
2022-09-03T22:07:41.208Z,25.20
2022-09-03T22:10:16.721Z,25.10
2022-09-03T22:13:28.412Z,25.10
2022-09-03T22:16:15.845Z,25.10
2022-09-03T22:18:44.202Z,25.10
2022-09-03T22:21:41.111Z,25.00
2022-09-03T22:24:23.531Z,24.90
2022-09-03T22:27:20.376Z,24.80
2022-09-03T22:29:54.911Z,24.70
2022-09-03T22:32:35.594Z,24.60
2022-09-03T22:35:15.536Z,24.50
2022-09-03T22:37:57.055Z,24.50
2022-09-03T22:40:59.527Z,24.30
2022-09-03T22:43:35.764Z,24.30
2022-09-03T22:46:22.735Z,24.20
2022-09-03T22:49:26.313Z,24.10
2022-09-03T22:51:59.442Z,24.10
2022-09-03T22:55:08.272Z,24.10
2022-09-03T22:57:49.743Z,24.10
2022-09-03T23:00:17.751Z,24.10
2022-09-03T23:02:50.138Z,24.10
2022-09-03T23:05:34.724Z,24.10
2022-09-03T23:08:28.833Z,24.10
2022-09-03T23:11:05.805Z,24.10
2022-09-03T23:13:45.452Z,24.10
2022-09-03T23:16:30.739Z,24.10
2022-09-03T23:19:01.698Z,24.00
2022-09-03T23:21:41.033Z,23.90
2022-09-03T23:24:27.065Z,23.80
2022-09-03T23:26:54.976Z,23.80
2022-09-03T23:29:26.248Z,23.70
2022-09-03T23:31:57.284Z,23.70
2022-09-03T23:34:25.805Z,23.70
2022-09-03T23:37:32.972Z,23.70
2022-09-03T23:40:22.216Z,23.70
2022-09-03T23:43:06.049Z,23.70
2022-09-03T23:45:42.218Z,23.70
2022-09-03T23:48:38.839Z,23.70
2022-09-03T23:51:33.106Z,23.70
2022-09-03T23:54:18.998Z,23.60
2022-09-03T23:57:02.319Z,23.60
2022-09-03T23:59:59.440Z,23.60
